createdAt,value
2017-11-18T00:01:30.637Z,60.70
2017-11-18T00:03:58.120Z,60.60
2017-11-18T00:06:26.379Z,60.40
2017-11-18T00:08:53.828Z,60.30
2017-11-18T00:11:21.313Z,59.50
2017-11-18T00:13:48.890Z,59.70
2017-11-18T00:16:16.355Z,59.40
2017-11-18T00:18:43.813Z,59.30
2017-11-18T00:21:11.269Z,59.40
2017-11-18T00:23:38.785Z,59.60
2017-11-18T00:26:06.227Z,59.80
2017-11-18T00:28:35.417Z,59.20
2017-11-18T00:31:02.878Z,59.20
2017-11-18T00:33:30.328Z,59.80
2017-11-18T00:35:57.804Z,59.60
2017-11-18T00:38:26.067Z,60.00
2017-11-18T00:40:53.514Z,59.90
2017-11-18T00:43:21.045Z,60.10
2017-11-18T00:45:48.543Z,60.00
2017-11-18T00:48:16.026Z,59.60
2017-11-18T00:50:43.519Z,60.10
2017-11-18T00:53:11.810Z,59.90
2017-11-18T00:55:39.209Z,59.90
2017-11-18T00:58:06.735Z,60.10
2017-11-18T01:00:34.206Z,60.20
2017-11-18T01:03:01.671Z,60.30
2017-11-18T01:05:29.156Z,60.20
2017-11-18T01:07:56.641Z,60.30
2017-11-18T01:10:24.085Z,61.10
2017-11-18T01:12:51.560Z,60.80
2017-11-18T01:15:19.225Z,60.60
2017-11-18T01:17:47.388Z,60.60
2017-11-18T01:20:14.859Z,60.50
2017-11-18T01:22:42.338Z,60.90
2017-11-18T01:25:09.842Z,61.10
2017-11-18T01:27:37.332Z,61.10
2017-11-18T01:30:04.834Z,61.80
2017-11-18T01:32:33.048Z,62.10
2017-11-18T01:35:00.529Z,62.00
2017-11-18T01:37:28.027Z,62.60
2017-11-18T01:39:55.499Z,61.90
2017-11-18T01:42:22.985Z,62.00
2017-11-18T01:44:51.220Z,62.00
2017-11-18T01:47:18.917Z,62.00
2017-11-18T01:49:47.139Z,62.40
2017-11-18T01:52:14.621Z,62.40
2017-11-18T01:54:42.075Z,62.90
2017-11-18T01:57:09.555Z,62.60
2017-11-18T01:59:37.030Z,62.50
2017-11-18T02:02:04.828Z,63.10
2017-11-18T02:04:33.077Z,63.60
2017-11-18T02:07:00.529Z,62.90
2017-11-18T02:09:28.024Z,63.20
2017-11-18T02:11:56.267Z,63.30
2017-11-18T02:14:23.728Z,63.20
2017-11-18T02:16:51.200Z,63.00
2017-11-18T02:19:18.684Z,62.90
2017-11-18T02:21:46.141Z,62.80
2017-11-18T02:24:13.589Z,62.10
2017-11-18T02:26:41.065Z,62.80
2017-11-18T02:29:08.550Z,62.90
2017-11-18T02:31:36.749Z,63.30
2017-11-18T02:34:04.244Z,63.20
2017-11-18T02:36:31.699Z,63.40
2017-11-18T02:38:59.185Z,63.10
2017-11-18T02:41:26.673Z,62.90
2017-11-18T02:43:54.911Z,63.40
2017-11-18T02:46:22.351Z,63.40
2017-11-18T02:48:49.868Z,63.30
2017-11-18T02:51:18.118Z,63.40
2017-11-18T02:53:45.615Z,63.40
2017-11-18T02:56:13.863Z,63.20
2017-11-18T02:58:41.339Z,63.00
2017-11-18T03:01:08.844Z,62.50
2017-11-18T03:03:36.294Z,62.60
2017-11-18T03:06:04.572Z,61.90
2017-11-18T03:08:32.797Z,61.90
2017-11-18T03:11:00.265Z,61.80
2017-11-18T03:13:27.698Z,61.40
2017-11-18T03:15:55.135Z,61.80
2017-11-18T03:18:23.346Z,62.80
2017-11-18T03:20:50.830Z,62.70
2017-11-18T03:23:18.268Z,62.60
2017-11-18T03:25:45.790Z,62.40
2017-11-18T03:28:13.240Z,62.10
2017-11-18T03:30:40.741Z,61.60
2017-11-18T03:33:09.096Z,62.80
2017-11-18T03:35:36.577Z,62.70
2017-11-18T03:38:04.015Z,62.70
2017-11-18T03:40:31.473Z,62.30
2017-11-18T03:42:58.927Z,62.20
2017-11-18T03:45:26.405Z,62.00
2017-11-18T03:47:53.842Z,62.60
2017-11-18T03:50:21.330Z,62.80
2017-11-18T03:52:48.788Z,63.40
2017-11-18T03:55:16.396Z,63.50
2017-11-18T03:57:43.831Z,62.70
2017-11-18T04:00:12.038Z,63.40
2017-11-18T04:02:39.543Z,63.30
2017-11-18T04:05:07.011Z,63.40
2017-11-18T04:07:35.271Z,62.90
2017-11-18T04:10:02.762Z,62.30
2017-11-18T04:12:30.220Z,62.60
2017-11-18T04:14:57.671Z,62.50
2017-11-18T04:17:25.145Z,62.50
2017-11-18T04:19:52.613Z,63.20
2017-11-18T04:22:20.203Z,63.30
2017-11-18T04:24:48.585Z,62.20
2017-11-18T04:27:16.826Z,63.30
2017-11-18T04:29:44.269Z,63.10
2017-11-18T04:32:12.430Z,61.80
2017-11-18T04:34:39.943Z,61.80
2017-11-18T04:37:07.369Z,61.50
2017-11-18T04:39:34.844Z,61.70
2017-11-18T04:42:02.418Z,61.50
2017-11-18T04:44:30.091Z,60.70
2017-11-18T04:46:57.579Z,60.60
2017-11-18T04:49:25.806Z,60.50
2017-11-18T04:51:53.272Z,60.40
2017-11-18T04:54:20.759Z,60.40
2017-11-18T04:56:48.241Z,60.10
2017-11-18T04:59:15.685Z,60.50
2017-11-18T05:01:43.149Z,60.70
2017-11-18T05:04:10.706Z,60.60
2017-11-18T05:06:38.138Z,61.50
2017-11-18T05:09:05.649Z,60.90
2017-11-18T05:11:33.610Z,60.90
2017-11-18T05:14:01.054Z,60.90
2017-11-18T05:16:28.498Z,60.90
2017-11-18T05:18:55.941Z,60.40
2017-11-18T05:21:23.413Z,61.30
2017-11-18T05:23:50.897Z,60.30
2017-11-18T05:26:18.369Z,61.20
2017-11-18T05:28:45.836Z,60.40
2017-11-18T05:31:13.314Z,60.10
2017-11-18T05:33:40.901Z,60.40
2017-11-18T05:36:09.196Z,60.10
2017-11-18T05:38:36.663Z,60.10
2017-11-18T05:41:04.121Z,59.00
2017-11-18T05:43:31.601Z,59.50
2017-11-18T05:45:59.050Z,59.30
2017-11-18T05:48:26.522Z,58.80
2017-11-18T05:50:53.989Z,58.80
2017-11-18T05:53:21.495Z,58.70
2017-11-18T05:55:48.947Z,58.70
2017-11-18T05:58:16.608Z,58.30
2017-11-18T06:00:44.127Z,58.80
2017-11-18T06:03:11.684Z,58.20
2017-11-18T06:05:39.205Z,57.80
2017-11-18T06:08:06.660Z,58.10
2017-11-18T06:10:34.116Z,57.50
2017-11-18T06:13:01.591Z,57.90
2017-11-18T06:15:29.053Z,57.90
2017-11-18T06:17:56.562Z,57.30
2017-11-18T06:20:24.048Z,57.70
2017-11-18T06:22:51.498Z,56.90
2017-11-18T06:25:18.975Z,56.90
2017-11-18T06:27:46.477Z,57.30
2017-11-18T06:30:13.948Z,57.00
2017-11-18T06:32:41.431Z,56.70
2017-11-18T06:35:09.648Z,56.70
2017-11-18T06:37:37.139Z,56.70
2017-11-18T06:40:04.634Z,56.50
2017-11-18T06:42:32.866Z,56.00
2017-11-18T06:45:00.375Z,56.00
2017-11-18T06:47:28.606Z,56.70
2017-11-18T06:49:56.174Z,56.60
2017-11-18T06:52:23.576Z,56.40
2017-11-18T06:54:51.815Z,56.40
2017-11-18T06:57:19.344Z,56.40
2017-11-18T06:59:46.795Z,56.60
2017-11-18T07:02:14.344Z,56.70
2017-11-18T07:04:42.653Z,57.00
2017-11-18T07:07:10.146Z,56.90
2017-11-18T07:09:37.599Z,56.00
2017-11-18T07:12:05.111Z,56.20
2017-11-18T07:14:32.748Z,56.60
2017-11-18T07:17:00.217Z,56.80
2017-11-18T07:19:27.695Z,56.40
2017-11-18T07:21:55.137Z,56.60
2017-11-18T07:24:22.748Z,55.80
2017-11-18T07:26:50.261Z,56.20
2017-11-18T07:29:17.696Z,56.20
2017-11-18T07:31:45.211Z,56.00
2017-11-18T07:34:12.794Z,56.30
2017-11-18T07:36:40.264Z,56.00
2017-11-18T07:39:08.512Z,56.10
2017-11-18T07:41:35.970Z,56.70
2017-11-18T07:44:03.532Z,55.70
2017-11-18T07:46:31.128Z,55.50
2017-11-18T07:48:59.596Z,55.50
2017-11-18T07:51:27.086Z,55.40
2017-11-18T07:53:54.525Z,55.10
2017-11-18T07:56:22.757Z,54.90
2017-11-18T07:58:50.963Z,55.00
2017-11-18T08:01:18.567Z,55.00
2017-11-18T08:03:46.953Z,55.10
2017-11-18T08:06:15.218Z,55.30
2017-11-18T08:08:42.662Z,55.30
2017-11-18T08:11:10.120Z,55.50
2017-11-18T08:13:37.616Z,55.70
2017-11-18T08:16:05.839Z,55.30
2017-11-18T08:18:33.285Z,55.30
2017-11-18T08:21:00.750Z,55.70
2017-11-18T08:23:28.241Z,55.80
2017-11-18T08:25:55.725Z,56.00
2017-11-18T08:28:23.234Z,55.80
2017-11-18T08:30:50.715Z,55.40
2017-11-18T08:33:18.214Z,55.40
2017-11-18T08:35:46.501Z,55.80
2017-11-18T08:38:13.935Z,55.30
2017-11-18T08:40:41.413Z,55.30
2017-11-18T08:43:08.872Z,57.40
2017-11-18T08:45:37.832Z,55.10
2017-11-18T08:48:05.357Z,55.10
2017-11-18T08:50:32.942Z,55.30
2017-11-18T08:53:00.348Z,55.30
2017-11-18T08:55:27.842Z,55.70
2017-11-18T08:57:56.111Z,55.30
2017-11-18T09:00:23.570Z,55.30
2017-11-18T09:02:51.161Z,56.10
2017-11-18T09:05:19.444Z,55.50
2017-11-18T09:07:47.642Z,55.80
2017-11-18T09:10:15.133Z,55.60
2017-11-18T09:12:42.634Z,55.80
2017-11-18T09:15:10.866Z,55.60
2017-11-18T09:17:38.361Z,55.50
2017-11-18T09:20:05.840Z,55.90
2017-11-18T09:22:34.135Z,56.10
2017-11-18T09:25:01.617Z,56.00
2017-11-18T09:27:29.209Z,55.90
2017-11-18T09:29:56.737Z,55.80
2017-11-18T09:32:24.260Z,55.80
2017-11-18T09:34:51.744Z,56.00
2017-11-18T09:37:20.039Z,55.20
2017-11-18T09:39:47.530Z,55.20
2017-11-18T09:42:14.982Z,56.50
2017-11-18T09:44:42.558Z,55.40
2017-11-18T09:47:10.061Z,55.30
2017-11-18T09:49:37.539Z,55.00
2017-11-18T09:52:05.852Z,55.30
2017-11-18T09:54:33.304Z,55.30
2017-11-18T09:57:01.531Z,55.80
2017-11-18T09:59:29.096Z,55.80
2017-11-18T10:01:56.502Z,55.70
2017-11-18T10:04:24.398Z,55.80
2017-11-18T10:06:51.868Z,55.90
2017-11-18T10:09:19.338Z,56.60
2017-11-18T10:11:46.793Z,56.40
2017-11-18T10:14:14.336Z,56.70
2017-11-18T10:16:42.521Z,57.40
2017-11-18T10:19:10.027Z,57.30
2017-11-18T10:21:37.459Z,57.30
2017-11-18T10:24:04.950Z,57.60
2017-11-18T10:26:32.441Z,57.70
2017-11-18T10:29:00.708Z,57.70
2017-11-18T10:31:28.199Z,57.70
2017-11-18T10:33:55.675Z,58.00
2017-11-18T10:36:23.139Z,57.90
2017-11-18T10:38:50.704Z,58.10
2017-11-18T10:41:18.157Z,58.30
2017-11-18T10:43:45.656Z,57.80
2017-11-18T10:46:13.146Z,57.60
2017-11-18T10:48:40.708Z,57.30
2017-11-18T10:51:08.146Z,57.40
2017-11-18T10:53:35.621Z,57.40
2017-11-18T10:56:03.321Z,57.40
2017-11-18T10:58:30.729Z,57.30
2017-11-18T11:00:58.246Z,57.20
2017-11-18T11:03:26.455Z,57.00
2017-11-18T11:05:53.943Z,57.00
2017-11-18T11:08:21.468Z,56.70
2017-11-18T11:10:48.981Z,56.20
2017-11-18T11:13:16.570Z,56.60
2017-11-18T11:15:44.002Z,56.60
2017-11-18T11:18:11.439Z,56.70
2017-11-18T11:20:38.956Z,56.40
2017-11-18T11:23:07.189Z,56.10
2017-11-18T11:25:34.687Z,55.80
2017-11-18T11:28:02.177Z,55.40
2017-11-18T11:30:30.380Z,55.70
2017-11-18T11:32:57.960Z,55.60
2017-11-18T11:35:25.455Z,55.60
2017-11-18T11:37:52.959Z,55.90
2017-11-18T11:40:21.206Z,55.60
2017-11-18T11:42:48.635Z,55.60
2017-11-18T11:45:16.148Z,55.70
2017-11-18T11:47:43.634Z,55.20
2017-11-18T11:50:11.874Z,55.70
2017-11-18T11:52:40.155Z,55.30
2017-11-18T11:55:07.649Z,55.30
2017-11-18T11:57:35.136Z,55.40
2017-11-18T12:00:02.627Z,55.30
2017-11-18T12:02:30.095Z,55.90
2017-11-18T12:04:57.545Z,55.60
2017-11-18T12:07:25.078Z,55.30
2017-11-18T12:09:53.255Z,55.20
2017-11-18T12:12:20.764Z,54.80
2017-11-18T12:14:48.256Z,54.80
2017-11-18T12:17:15.710Z,55.00
2017-11-18T12:19:43.925Z,54.90
2017-11-18T12:22:11.428Z,54.80
2017-11-18T12:24:38.914Z,54.80
2017-11-18T12:27:07.187Z,54.80
2017-11-18T12:29:34.675Z,54.80
2017-11-18T12:32:02.141Z,54.80
2017-11-18T12:34:29.565Z,54.80
2017-11-18T12:36:57.079Z,54.90
2017-11-18T12:39:24.517Z,55.20
2017-11-18T12:41:52.893Z,55.00
2017-11-18T12:44:21.143Z,54.90
2017-11-18T12:46:48.555Z,54.90
2017-11-18T12:49:16.051Z,55.00
2017-11-18T12:51:43.536Z,55.00
2017-11-18T12:54:11.061Z,55.00
2017-11-18T12:56:39.258Z,55.30
2017-11-18T12:59:06.753Z,55.20
2017-11-18T13:01:35.020Z,56.00
2017-11-18T13:04:03.180Z,55.40
2017-11-18T13:06:30.541Z,55.50
2017-11-18T13:08:58.001Z,55.70
2017-11-18T13:11:25.492Z,56.00
2017-11-18T13:13:52.942Z,57.00
2017-11-18T13:16:20.541Z,56.10
2017-11-18T13:18:47.988Z,56.20
2017-11-18T13:21:15.423Z,56.60
2017-11-18T13:23:42.943Z,56.90
2017-11-18T13:26:11.150Z,57.60
2017-11-18T13:28:38.661Z,57.60
2017-11-18T13:31:06.126Z,57.20
2017-11-18T13:33:33.646Z,57.10
2017-11-18T13:36:01.142Z,57.10
2017-11-18T13:38:29.368Z,58.10
2017-11-18T13:40:56.927Z,57.50
2017-11-18T13:43:24.361Z,57.60
2017-11-18T13:45:52.624Z,58.00
2017-11-18T13:48:20.928Z,58.40
2017-11-18T13:50:48.356Z,58.20
2017-11-18T13:53:15.824Z,58.80
2017-11-18T13:55:43.540Z,58.80
2017-11-18T13:58:11.034Z,59.00
2017-11-18T14:00:38.529Z,59.60
2017-11-18T14:03:06.752Z,59.60
2017-11-18T14:05:34.461Z,59.60
2017-11-18T14:08:01.972Z,59.60
2017-11-18T14:10:29.433Z,59.50
2017-11-18T14:12:57.664Z,60.80
2017-11-18T14:15:25.269Z,60.70
2017-11-18T14:17:53.561Z,62.50
2017-11-18T14:20:21.002Z,62.50
2017-11-18T14:22:48.475Z,63.70
2017-11-18T14:25:15.920Z,64.30
2017-11-18T14:27:44.138Z,65.90
2017-11-18T14:30:11.653Z,65.90
2017-11-18T14:32:39.126Z,66.60
2017-11-18T14:35:07.417Z,69.00
2017-11-18T14:37:34.868Z,69.00
2017-11-18T14:40:02.333Z,69.50
2017-11-18T14:42:30.614Z,69.00
2017-11-18T14:44:58.838Z,69.50
2017-11-18T14:47:26.332Z,69.50
2017-11-18T14:49:53.788Z,69.10
2017-11-18T14:52:21.257Z,69.10
2017-11-18T14:54:48.746Z,69.10
2017-11-18T14:57:16.940Z,69.80
2017-11-18T14:59:44.466Z,69.80
2017-11-18T15:02:11.925Z,69.00
2017-11-18T15:04:39.429Z,68.80
2017-11-18T15:07:06.937Z,69.00
2017-11-18T15:09:34.465Z,69.00
2017-11-18T15:12:01.952Z,69.00
2017-11-18T15:14:29.480Z,69.80
2017-11-18T15:16:56.958Z,70.40
2017-11-18T15:19:24.464Z,71.00
2017-11-18T15:21:51.917Z,71.60
2017-11-18T15:24:19.540Z,72.20
2017-11-18T15:26:46.962Z,72.90
2017-11-18T15:29:14.496Z,69.50
2017-11-18T15:31:42.014Z,70.60
2017-11-18T15:34:10.254Z,74.20
2017-11-18T15:36:37.701Z,74.00
2017-11-18T15:39:05.200Z,74.20
2017-11-18T15:41:32.678Z,75.90
2017-11-18T15:44:00.112Z,77.00
2017-11-18T15:46:27.594Z,77.30
2017-11-18T15:48:55.181Z,78.60
2017-11-18T15:51:22.663Z,78.50
2017-11-18T15:53:50.235Z,77.30
2017-11-18T15:56:17.718Z,77.80
2017-11-18T15:58:45.171Z,78.50
2017-11-18T16:01:12.719Z,78.80
2017-11-18T16:03:40.140Z,80.20
2017-11-18T16:06:07.587Z,81.00
2017-11-18T16:08:35.853Z,81.10
2017-11-18T16:11:03.287Z,81.00
2017-11-18T16:13:30.982Z,81.30
2017-11-18T16:15:58.481Z,79.80
2017-11-18T16:18:26.746Z,81.00
2017-11-18T16:20:54.262Z,80.90
2017-11-18T16:23:22.482Z,80.20
2017-11-18T16:25:50.020Z,79.70
2017-11-18T16:28:17.530Z,79.20
2017-11-18T16:30:45.022Z,79.90
2017-11-18T16:33:12.488Z,81.00
2017-11-18T16:35:39.936Z,81.80
2017-11-18T16:38:07.514Z,82.60
2017-11-18T16:40:35.190Z,81.70
2017-11-18T16:43:02.619Z,81.90
2017-11-18T16:45:30.090Z,81.60
2017-11-18T16:47:58.335Z,81.10
2017-11-18T16:50:25.854Z,81.10
2017-11-18T16:52:53.304Z,80.60
2017-11-18T16:55:20.788Z,80.70
2017-11-18T16:57:48.231Z,81.00
2017-11-18T17:00:15.703Z,81.40
2017-11-18T17:02:43.225Z,80.30
2017-11-18T17:05:10.723Z,80.40
2017-11-18T17:07:38.130Z,80.30
2017-11-18T17:10:06.379Z,79.90
2017-11-18T17:12:33.822Z,79.80
2017-11-18T17:15:02.253Z,80.70
2017-11-18T17:17:29.853Z,81.20
2017-11-18T17:19:57.300Z,81.60
2017-11-18T17:22:24.738Z,81.00
2017-11-18T17:24:52.176Z,82.00
2017-11-18T17:27:19.846Z,82.20
2017-11-18T17:29:48.022Z,83.40
2017-11-18T17:32:15.502Z,83.40
2017-11-18T17:34:42.972Z,83.40
2017-11-18T17:37:10.492Z,82.70
2017-11-18T17:39:37.946Z,83.20
2017-11-18T17:42:05.415Z,83.80
2017-11-18T17:44:32.888Z,83.40
2017-11-18T17:47:00.364Z,82.20
2017-11-18T17:49:27.848Z,82.50
2017-11-18T17:51:55.304Z,82.20
2017-11-18T17:54:22.797Z,82.10
2017-11-18T17:56:51.063Z,82.20
2017-11-18T17:59:19.820Z,82.20
2017-11-18T18:01:47.380Z,82.60
2017-11-18T18:04:14.861Z,83.00
2017-11-18T18:06:42.490Z,82.80
2017-11-18T18:09:09.980Z,82.10
2017-11-18T18:11:37.452Z,81.90
2017-11-18T18:14:04.924Z,82.30
2017-11-18T18:16:32.453Z,82.90
2017-11-18T18:18:59.956Z,84.70
2017-11-18T18:21:27.480Z,83.10
2017-11-18T18:23:55.007Z,84.40
2017-11-18T18:26:23.271Z,83.60
2017-11-18T18:28:50.751Z,83.50
2017-11-18T18:31:19.055Z,84.20
2017-11-18T18:33:46.583Z,84.00
2017-11-18T18:36:14.061Z,84.40
2017-11-18T18:38:41.574Z,83.50
2017-11-18T18:41:09.074Z,84.20
2017-11-18T18:43:36.493Z,83.50
2017-11-18T18:46:04.009Z,82.50
2017-11-18T18:48:31.517Z,82.40
2017-11-18T18:50:59.030Z,83.20
2017-11-18T18:53:26.555Z,83.70
2017-11-18T18:55:54.039Z,83.60
2017-11-18T18:58:21.488Z,83.80
2017-11-18T19:00:48.993Z,83.40
2017-11-18T19:03:17.235Z,84.40
2017-11-18T19:05:44.741Z,84.40
2017-11-18T19:08:12.200Z,83.10
2017-11-18T19:10:39.682Z,83.50
2017-11-18T19:13:07.991Z,82.70
2017-11-18T19:15:35.468Z,82.60
2017-11-18T19:18:02.959Z,82.00
2017-11-18T19:20:30.489Z,82.70
2017-11-18T19:22:58.014Z,83.00
2017-11-18T19:25:26.244Z,83.60
2017-11-18T19:27:53.790Z,83.60
2017-11-18T19:30:21.260Z,83.40
2017-11-18T19:32:48.771Z,82.70
2017-11-18T19:35:16.280Z,83.20
2017-11-18T19:37:43.790Z,82.60
2017-11-18T19:40:11.296Z,83.50
2017-11-18T19:42:38.904Z,84.40
2017-11-18T19:45:06.617Z,84.30
2017-11-18T19:47:34.939Z,85.10
2017-11-18T19:50:03.415Z,84.90
2017-11-18T19:52:31.004Z,84.90
2017-11-18T19:54:58.486Z,84.80
2017-11-18T19:57:25.943Z,85.40
2017-11-18T19:59:53.505Z,85.00
2017-11-18T20:02:20.918Z,85.70
2017-11-18T20:04:49.147Z,86.60
2017-11-18T20:07:16.636Z,86.50
2017-11-18T20:09:44.125Z,86.60
2017-11-18T20:12:12.591Z,86.50
2017-11-18T20:14:40.808Z,86.60
2017-11-18T20:17:08.302Z,86.50
2017-11-18T20:19:36.622Z,87.20
2017-11-18T20:22:04.949Z,87.60
2017-11-18T20:24:32.397Z,87.50
2017-11-18T20:27:00.644Z,86.40
2017-11-18T20:29:28.146Z,86.40
2017-11-18T20:31:55.596Z,86.10
2017-11-18T20:34:23.257Z,86.00
2017-11-18T20:36:50.732Z,86.80
2017-11-18T20:39:18.347Z,86.70
2017-11-18T20:41:45.844Z,86.50
2017-11-18T20:44:15.345Z,86.40
2017-11-18T20:46:43.586Z,86.10
2017-11-18T20:49:11.029Z,86.00
2017-11-18T20:51:38.549Z,84.70
2017-11-18T20:54:05.975Z,85.30
2017-11-18T20:56:33.493Z,84.40
2017-11-18T20:59:00.997Z,85.10
2017-11-18T21:01:29.453Z,84.00
2017-11-18T21:03:56.947Z,83.90
2017-11-18T21:06:24.523Z,84.20
2017-11-18T21:08:52.059Z,84.00
2017-11-18T21:11:19.499Z,82.50
2017-11-18T21:13:47.012Z,82.10
2017-11-18T21:16:14.499Z,82.50
2017-11-18T21:18:41.947Z,82.70
2017-11-18T21:21:09.433Z,81.60
2017-11-18T21:23:36.935Z,82.60
2017-11-18T21:26:05.179Z,81.10
2017-11-18T21:28:32.676Z,81.10
2017-11-18T21:31:00.142Z,81.80
2017-11-18T21:33:28.396Z,80.70
2017-11-18T21:35:55.892Z,80.50
2017-11-18T21:38:23.412Z,81.60
2017-11-18T21:40:50.866Z,81.50
2017-11-18T21:43:18.376Z,80.40
2017-11-18T21:45:45.832Z,80.30
2017-11-18T21:48:13.292Z,79.90
2017-11-18T21:50:40.775Z,79.70
2017-11-18T21:53:09.020Z,80.20
2017-11-18T21:55:36.620Z,80.20
2017-11-18T21:58:04.865Z,80.80
2017-11-18T22:00:32.309Z,80.80
2017-11-18T22:02:59.801Z,80.20
2017-11-18T22:05:27.286Z,80.40
2017-11-18T22:07:55.613Z,82.20
2017-11-18T22:10:23.117Z,82.20
2017-11-18T22:12:50.608Z,81.50
2017-11-18T22:15:18.065Z,80.90
2017-11-18T22:17:45.576Z,81.50
2017-11-18T22:20:12.981Z,81.80
2017-11-18T22:22:41.190Z,80.90
2017-11-18T22:25:08.704Z,80.90
2017-11-18T22:27:36.374Z,81.30
2017-11-18T22:30:03.805Z,81.40
2017-11-18T22:32:31.290Z,82.60
2017-11-18T22:34:58.747Z,82.70
2017-11-18T22:37:26.205Z,82.80
2017-11-18T22:39:53.697Z,83.50
2017-11-18T22:42:21.927Z,83.40
2017-11-18T22:44:49.409Z,83.40
2017-11-18T22:47:16.874Z,83.60
2017-11-18T22:49:44.568Z,82.50
2017-11-18T22:52:12.022Z,82.20
2017-11-18T22:54:39.492Z,83.20
2017-11-18T22:57:07.742Z,83.20
2017-11-18T22:59:35.210Z,83.20
2017-11-18T23:02:02.730Z,84.20
2017-11-18T23:04:30.241Z,83.30
2017-11-18T23:06:57.690Z,83.00
2017-11-18T23:09:25.140Z,82.80
2017-11-18T23:11:52.665Z,82.70
2017-11-18T23:14:20.119Z,82.80
2017-11-18T23:16:47.614Z,83.30
2017-11-18T23:19:15.888Z,83.00
2017-11-18T23:21:44.127Z,82.70
2017-11-18T23:24:11.581Z,82.70
2017-11-18T23:26:39.074Z,84.20
2017-11-18T23:29:06.531Z,84.10
2017-11-18T23:31:33.985Z,84.50
2017-11-18T23:34:01.537Z,84.60
2017-11-18T23:36:28.992Z,85.00
2017-11-18T23:38:56.499Z,84.70
2017-11-18T23:41:24.709Z,83.90
2017-11-18T23:43:52.174Z,83.50
2017-11-18T23:46:19.670Z,82.80
2017-11-18T23:48:47.133Z,82.80
2017-11-18T23:51:14.609Z,82.80
2017-11-18T23:53:42.080Z,82.30
2017-11-18T23:56:09.564Z,82.00
2017-11-18T23:58:37.829Z,81.60
